Terminal Aerodrome Forecast
Issued by NWS Knoxville/Tri Cities, TN

Home | Current Version | Previous Version | Text Only | Print | Product List | Glossary On
Versions: 1 2 3 4 5 6 7 8 9 10 11 12 13 14 15 16 17 18 19 20 21 22 23 24 25 26 27 28 29 30 31 32 33 34 35 36 37 38 39 40 41 42 43 44 45 46 47 48
000
FTUS44 KMRX 180943 AAC
TAFTRI
TAF AMD
KTRI 180943Z 1810/1906 00000KT 3SM BR BKN002 BKN025 OVC040
      TEMPO 1810/1812 1/2SM FG OVC002
     FM181300 VRB02KT 3SM BR BKN025
     FM181400 VRB04KT P6SM SCT040
     FM190100 00000KT P6SM SCT250=

USA.gov is the U.S. government's official web portal to all federal, state and local government web resources and services.